createdAt,value
2023-05-08T00:01:01.332Z,13.80
2023-05-08T00:03:28.359Z,13.80
2023-05-08T00:05:56.028Z,13.80
2023-05-08T00:08:23.258Z,13.80
2023-05-08T00:10:50.122Z,13.80
2023-05-08T00:13:17.142Z,13.80
2023-05-08T00:15:44.040Z,13.80
2023-05-08T00:18:10.906Z,13.80
2023-05-08T00:20:37.981Z,13.80
2023-05-08T00:23:05.120Z,13.80
2023-05-08T00:25:32.114Z,13.80
2023-05-08T00:27:59.999Z,13.80
2023-05-08T00:30:27.396Z,13.70
2023-05-08T00:32:54.382Z,13.70
2023-05-08T00:35:21.466Z,13.70
2023-05-08T00:37:48.296Z,13.70
2023-05-08T00:40:15.646Z,13.70
2023-05-08T00:42:42.730Z,13.70
2023-05-08T00:45:10.113Z,13.70
2023-05-08T00:47:37.148Z,13.70
2023-05-08T00:50:05.383Z,13.70
2023-05-08T00:52:33.565Z,13.70
2023-05-08T00:55:02.941Z,13.70
2023-05-08T00:57:32.745Z,13.70
2023-05-08T01:00:01.744Z,13.70
2023-05-08T01:02:31.661Z,13.70
2023-05-08T01:04:58.699Z,13.70
2023-05-08T01:07:25.744Z,13.70
2023-05-08T01:09:52.757Z,13.70
2023-05-08T01:12:37.920Z,13.70
2023-05-08T01:15:17.385Z,13.70
2023-05-08T01:18:42.610Z,13.80
2023-05-08T01:21:22.326Z,13.70
2023-05-08T01:24:39.238Z,13.80
2023-05-08T01:27:44.892Z,13.80
2023-05-08T01:30:44.520Z,13.80
2023-05-08T01:33:21.253Z,13.80
2023-05-08T01:35:53.137Z,13.70
2023-05-08T01:38:31.899Z,13.70
2023-05-08T01:41:15.951Z,13.70
2023-05-08T01:43:53.355Z,13.80
2023-05-08T01:46:27.240Z,13.80
2023-05-08T01:49:05.245Z,13.80
2023-05-08T01:51:45.302Z,13.80
2023-05-08T01:54:24.253Z,13.80
2023-05-08T01:56:55.086Z,13.80
2023-05-08T01:59:24.491Z,13.80
2023-05-08T02:01:57.175Z,13.80
2023-05-08T02:04:25.724Z,13.80
2023-05-08T02:06:54.204Z,13.80
2023-05-08T02:09:23.164Z,13.70
2023-05-08T02:11:51.170Z,13.80
2023-05-08T02:14:21.025Z,13.90
2023-05-08T02:16:50.707Z,13.80
2023-05-08T02:19:20.600Z,13.80
2023-05-08T02:21:48.427Z,13.80
2023-05-08T02:24:16.176Z,13.80
2023-05-08T02:26:45.643Z,13.80
2023-05-08T02:29:13.497Z,13.80
2023-05-08T02:31:42.428Z,13.80
2023-05-08T02:34:11.032Z,13.80
2023-05-08T02:36:39.062Z,13.80
2023-05-08T02:39:08.026Z,13.80
2023-05-08T02:41:37.174Z,13.80
2023-05-08T02:44:04.138Z,13.80
2023-05-08T02:47:29.559Z,13.80
2023-05-08T02:50:15.002Z,13.80
2023-05-08T02:52:49.137Z,13.80
2023-05-08T02:55:37.424Z,13.80
2023-05-08T02:58:14.682Z,13.80
2023-05-08T03:01:07.342Z,13.80
2023-05-08T03:03:45.415Z,13.80
2023-05-08T03:06:22.234Z,13.80
2023-05-08T03:08:50.597Z,13.70
2023-05-08T03:11:24.237Z,13.70
2023-05-08T03:13:56.895Z,13.70
2023-05-08T03:16:27.885Z,13.70
2023-05-08T03:19:03.622Z,13.70
2023-05-08T03:21:32.136Z,13.70
2023-05-08T03:24:02.129Z,13.70
2023-05-08T03:26:29.209Z,13.70
2023-05-08T03:28:57.534Z,13.70
2023-05-08T03:31:25.610Z,13.70
2023-05-08T03:33:55.425Z,13.70
2023-05-08T03:36:27.000Z,13.70
2023-05-08T03:38:53.948Z,13.70
2023-05-08T03:41:21.144Z,13.70
2023-05-08T03:43:48.326Z,13.70
2023-05-08T03:46:17.102Z,13.70
2023-05-08T03:48:45.616Z,13.70
2023-05-08T03:51:12.673Z,13.70
2023-05-08T03:53:39.425Z,13.70
2023-05-08T03:56:06.655Z,13.60
2023-05-08T03:58:48.660Z,13.60
2023-05-08T04:01:25.995Z,13.60
2023-05-08T04:04:03.616Z,13.50
2023-05-08T04:06:49.492Z,13.50
2023-05-08T04:09:35.985Z,13.50
2023-05-08T04:12:31.967Z,13.50
2023-05-08T04:15:11.948Z,13.50
2023-05-08T04:17:53.602Z,13.50
2023-05-08T04:20:24.488Z,13.50
2023-05-08T04:22:54.894Z,13.50
2023-05-08T04:25:21.935Z,13.50
2023-05-08T04:27:51.176Z,13.50
2023-05-08T04:30:19.271Z,13.60
2023-05-08T04:32:47.628Z,13.60
2023-05-08T04:35:15.118Z,13.60
2023-05-08T04:37:43.610Z,13.70
2023-05-08T04:40:11.045Z,13.70
2023-05-08T04:42:39.513Z,13.70
2023-05-08T04:45:07.227Z,13.70
2023-05-08T04:47:34.056Z,13.70
2023-05-08T04:50:02.768Z,13.70
2023-05-08T04:52:30.076Z,13.70
2023-05-08T04:54:56.939Z,13.70
2023-05-08T04:57:23.862Z,13.70
2023-05-08T04:59:51.021Z,13.70
2023-05-08T05:02:18.237Z,13.70
2023-05-08T05:04:45.172Z,13.70
2023-05-08T05:07:12.035Z,13.70
2023-05-08T05:09:39.304Z,13.80
2023-05-08T05:12:07.253Z,13.80
2023-05-08T05:14:34.374Z,13.80
2023-05-08T05:17:01.307Z,13.80
2023-05-08T05:19:28.172Z,13.80
2023-05-08T05:21:54.960Z,13.90
2023-05-08T05:24:21.955Z,13.90
2023-05-08T05:26:48.748Z,14.00
2023-05-08T05:29:15.574Z,14.00
2023-05-08T05:31:42.524Z,14.10
2023-05-08T05:34:09.408Z,14.00
2023-05-08T05:36:36.542Z,14.10
2023-05-08T05:39:03.583Z,14.10
2023-05-08T05:41:30.851Z,14.20
2023-05-08T05:43:57.582Z,14.10
2023-05-08T05:46:31.164Z,14.10
2023-05-08T05:48:59.021Z,14.20
2023-05-08T05:51:27.622Z,14.20
2023-05-08T05:53:54.528Z,14.20
2023-05-08T05:56:23.159Z,14.20
2023-05-08T05:58:50.092Z,14.20
2023-05-08T06:01:17.151Z,14.20
2023-05-08T06:03:44.183Z,14.30
2023-05-08T06:06:11.301Z,14.30
2023-05-08T06:08:38.070Z,14.30
2023-05-08T06:11:04.907Z,14.30
2023-05-08T06:13:32.092Z,14.30
2023-05-08T06:15:58.911Z,14.20
2023-05-08T06:18:26.016Z,14.20
2023-05-08T06:20:58.137Z,14.20
2023-05-08T06:23:25.684Z,14.20
2023-05-08T06:25:53.228Z,14.20
2023-05-08T06:28:20.216Z,14.10
2023-05-08T06:30:47.069Z,14.10
2023-05-08T06:33:13.893Z,14.10
2023-05-08T06:35:40.761Z,14.10
2023-05-08T06:38:07.567Z,14.20
2023-05-08T06:40:34.703Z,14.20
2023-05-08T06:43:01.498Z,14.30
2023-05-08T06:45:28.343Z,14.30
2023-05-08T06:47:55.301Z,14.40
2023-05-08T06:50:22.265Z,14.40
2023-05-08T06:52:49.010Z,14.30
2023-05-08T06:55:16.020Z,14.30
2023-05-08T06:57:42.897Z,14.30
2023-05-08T07:00:10.791Z,14.30
2023-05-08T07:02:37.700Z,14.30
2023-05-08T07:05:05.285Z,14.30
2023-05-08T07:07:32.202Z,14.20
2023-05-08T07:09:59.048Z,14.20
2023-05-08T07:12:25.832Z,14.10
2023-05-08T07:14:52.684Z,14.20
2023-05-08T07:17:19.549Z,14.10
2023-05-08T07:19:51.256Z,14.10
2023-05-08T07:22:19.072Z,14.00
2023-05-08T07:24:45.918Z,13.90
2023-05-08T07:27:14.434Z,13.90
2023-05-08T07:29:42.564Z,13.80
2023-05-08T07:32:09.601Z,13.80
2023-05-08T07:34:36.404Z,13.80
2023-05-08T07:37:03.738Z,13.80
2023-05-08T07:39:30.546Z,13.80
2023-05-08T07:41:57.389Z,13.90
2023-05-08T07:44:24.215Z,13.90
2023-05-08T07:46:51.057Z,13.90
2023-05-08T07:49:17.942Z,13.90
2023-05-08T07:51:44.745Z,13.90
2023-05-08T07:54:11.555Z,14.00
2023-05-08T07:56:38.376Z,14.00
2023-05-08T07:59:05.203Z,14.00
2023-05-08T08:01:32.358Z,14.00
2023-05-08T08:03:59.242Z,14.00
2023-05-08T08:06:26.133Z,14.10
2023-05-08T08:08:52.913Z,14.20
2023-05-08T08:11:19.704Z,14.30
2023-05-08T08:13:46.574Z,14.40
2023-05-08T08:16:13.358Z,14.40
2023-05-08T08:18:40.285Z,14.40
2023-05-08T08:21:07.769Z,14.40
2023-05-08T08:23:34.792Z,14.40
2023-05-08T08:26:01.616Z,14.40
2023-05-08T08:28:28.461Z,14.40
2023-05-08T08:30:55.490Z,14.40
2023-05-08T08:33:22.421Z,14.40
2023-05-08T08:35:49.303Z,14.30
2023-05-08T08:38:16.858Z,14.30
2023-05-08T08:40:44.432Z,14.30
2023-05-08T08:43:12.476Z,14.20
2023-05-08T08:45:39.819Z,14.40
2023-05-08T08:48:12.516Z,14.10
2023-05-08T08:50:46.896Z,14.10
2023-05-08T08:53:31.122Z,14.00
2023-05-08T08:56:00.018Z,14.00
2023-05-08T08:58:51.012Z,14.00
2023-05-08T09:01:19.435Z,13.90
2023-05-08T09:03:49.052Z,13.90
2023-05-08T09:06:17.541Z,13.90
2023-05-08T09:08:44.886Z,13.90
2023-05-08T09:11:11.660Z,13.90
2023-05-08T09:13:38.959Z,14.10
2023-05-08T09:16:06.363Z,13.90
2023-05-08T09:18:33.168Z,14.00
2023-05-08T09:21:01.754Z,14.00
2023-05-08T09:23:28.720Z,14.00
2023-05-08T09:25:55.609Z,14.00
2023-05-08T09:28:25.188Z,14.10
2023-05-08T09:30:54.936Z,14.10
2023-05-08T09:33:27.143Z,14.10
2023-05-08T09:35:55.681Z,14.20
2023-05-08T09:38:40.548Z,14.20
2023-05-08T09:41:14.378Z,14.20
2023-05-08T09:44:00.134Z,14.30
2023-05-08T09:46:27.634Z,14.40
2023-05-08T09:48:58.195Z,14.50
2023-05-08T09:51:27.649Z,14.70
2023-05-08T09:53:57.632Z,14.80
2023-05-08T09:56:40.141Z,14.80
2023-05-08T09:59:23.775Z,14.80
2023-05-08T10:01:51.127Z,14.70
2023-05-08T10:04:17.999Z,14.70
2023-05-08T10:06:58.526Z,14.70
2023-05-08T10:09:27.363Z,14.70
2023-05-08T10:11:57.562Z,14.80
2023-05-08T10:14:25.622Z,14.90
2023-05-08T10:16:54.591Z,15.20
2023-05-08T10:19:28.557Z,15.40
2023-05-08T10:21:57.598Z,15.50
2023-05-08T10:24:33.726Z,15.50
2023-05-08T10:27:17.699Z,15.50
2023-05-08T10:30:06.448Z,15.40
2023-05-08T10:32:41.263Z,15.40
2023-05-08T10:35:11.315Z,15.40
2023-05-08T10:37:42.071Z,15.50
2023-05-08T10:40:11.021Z,15.50
2023-05-08T10:42:38.863Z,15.50
2023-05-08T10:45:07.492Z,15.50
2023-05-08T10:47:53.436Z,15.60
2023-05-08T10:50:35.094Z,15.50
2023-05-08T10:53:16.770Z,15.60
2023-05-08T10:55:48.197Z,15.60
2023-05-08T10:58:25.516Z,15.60
2023-05-08T11:00:52.242Z,15.50
2023-05-08T11:03:30.543Z,15.40
2023-05-08T11:06:00.397Z,15.40
2023-05-08T11:08:29.138Z,15.40
2023-05-08T11:11:07.821Z,15.40
2023-05-08T11:13:41.371Z,15.50
2023-05-08T11:16:11.075Z,15.60
2023-05-08T11:18:48.839Z,15.80
2023-05-08T11:21:23.650Z,15.80
2023-05-08T11:24:00.513Z,15.90
2023-05-08T11:26:42.442Z,15.90
2023-05-08T11:29:18.466Z,16.00
2023-05-08T11:31:53.127Z,16.00
2023-05-08T11:34:42.124Z,16.10
2023-05-08T11:37:24.012Z,16.20
2023-05-08T11:39:51.192Z,16.30
2023-05-08T11:42:27.263Z,16.30
2023-05-08T11:45:09.903Z,16.50
2023-05-08T11:47:42.276Z,16.40
2023-05-08T11:50:11.498Z,16.30
2023-05-08T11:52:41.559Z,16.40
2023-05-08T11:55:13.256Z,16.50
2023-05-08T11:57:40.137Z,16.60
2023-05-08T12:00:09.649Z,16.80
2023-05-08T12:02:41.819Z,16.80
2023-05-08T12:05:11.016Z,16.90
2023-05-08T12:07:46.654Z,16.80
2023-05-08T12:10:15.891Z,16.80
2023-05-08T12:12:44.420Z,16.70
2023-05-08T12:15:15.468Z,16.80
2023-05-08T12:17:43.103Z,16.90
2023-05-08T12:20:16.774Z,17.00
2023-05-08T12:22:52.275Z,17.10
2023-05-08T12:25:19.684Z,17.30
2023-05-08T12:27:47.235Z,17.50
2023-05-08T12:30:15.922Z,17.70
2023-05-08T12:32:44.395Z,17.90
2023-05-08T12:35:13.172Z,18.00
2023-05-08T12:37:40.713Z,18.00
2023-05-08T12:40:23.588Z,18.10
2023-05-08T12:42:51.406Z,18.20
2023-05-08T12:45:42.377Z,18.20
2023-05-08T12:48:18.099Z,18.20
2023-05-08T12:50:46.322Z,18.30
2023-05-08T12:53:21.923Z,18.40
2023-05-08T12:56:04.429Z,18.40
2023-05-08T12:58:35.476Z,18.50
2023-05-08T13:01:13.283Z,18.60
2023-05-08T13:03:41.357Z,18.60
2023-05-08T13:06:22.447Z,18.60
2023-05-08T13:08:57.041Z,18.60
2023-05-08T13:11:33.098Z,18.50
2023-05-08T13:14:00.589Z,18.40
2023-05-08T13:16:27.517Z,18.50
2023-05-08T13:18:54.336Z,18.40
2023-05-08T13:21:21.155Z,18.40
2023-05-08T13:23:47.935Z,18.40
2023-05-08T13:26:14.737Z,18.40
2023-05-08T13:28:41.559Z,18.20
2023-05-08T13:31:08.326Z,18.20
2023-05-08T13:33:35.279Z,18.10
2023-05-08T13:36:02.201Z,18.00
2023-05-08T13:38:29.059Z,18.00
2023-05-08T13:40:56.112Z,17.90
2023-05-08T13:43:23.011Z,17.80
2023-05-08T13:45:49.857Z,17.70
2023-05-08T13:48:16.748Z,17.80
2023-05-08T13:50:43.537Z,17.40
2023-05-08T13:53:10.298Z,17.10
2023-05-08T13:55:37.120Z,16.80
2023-05-08T13:58:03.990Z,16.60
2023-05-08T14:00:30.753Z,16.30
2023-05-08T14:02:57.640Z,16.10
2023-05-08T14:05:24.526Z,15.80
2023-05-08T14:07:51.380Z,15.70
2023-05-08T14:10:18.331Z,15.60
2023-05-08T14:12:46.553Z,15.50
2023-05-08T14:15:13.687Z,15.40
2023-05-08T14:17:42.277Z,15.30
2023-05-08T14:20:11.702Z,15.30
2023-05-08T14:22:39.214Z,15.10
2023-05-08T14:25:07.405Z,15.00
2023-05-08T14:27:34.298Z,14.80
2023-05-08T14:30:01.374Z,14.70
2023-05-08T14:32:28.309Z,14.60
2023-05-08T14:34:55.207Z,14.60
2023-05-08T14:37:22.529Z,14.50
2023-05-08T14:39:50.337Z,14.50
2023-05-08T14:42:22.767Z,14.50
2023-05-08T14:44:51.474Z,14.50
2023-05-08T14:47:18.445Z,14.60
2023-05-08T14:49:45.263Z,14.70
2023-05-08T14:52:12.079Z,14.70
2023-05-08T14:54:39.193Z,14.70
2023-05-08T14:57:06.111Z,14.70
2023-05-08T14:59:33.071Z,14.70
2023-05-08T15:01:59.954Z,14.70
2023-05-08T15:04:27.110Z,14.70
2023-05-08T15:06:53.894Z,14.80
2023-05-08T15:09:20.714Z,14.80
2023-05-08T15:11:47.547Z,14.80
2023-05-08T15:14:14.452Z,14.80
2023-05-08T15:16:41.264Z,14.80
2023-05-08T15:19:09.379Z,14.90
2023-05-08T15:21:36.397Z,14.90
2023-05-08T15:24:03.324Z,15.00
2023-05-08T15:26:30.134Z,15.00
2023-05-08T15:28:56.881Z,15.10
2023-05-08T15:31:23.798Z,15.20
2023-05-08T15:33:50.622Z,15.20
2023-05-08T15:36:17.523Z,15.30
2023-05-08T15:38:44.309Z,15.50
2023-05-08T15:41:15.181Z,15.50
2023-05-08T15:43:43.147Z,15.50
2023-05-08T15:46:10.470Z,15.60
2023-05-08T15:48:37.420Z,15.70
2023-05-08T15:51:04.325Z,15.80
2023-05-08T15:53:32.336Z,15.90
2023-05-08T15:55:59.172Z,16.00
2023-05-08T15:58:26.705Z,16.10
2023-05-08T16:00:53.519Z,16.20
2023-05-08T16:03:20.564Z,16.20
2023-05-08T16:05:47.857Z,16.20
2023-05-08T16:08:15.228Z,16.20
2023-05-08T16:10:42.468Z,16.20
2023-05-08T16:13:09.454Z,16.20
2023-05-08T16:15:36.337Z,16.20
2023-05-08T16:18:03.497Z,16.20
2023-05-08T16:20:31.152Z,16.20
2023-05-08T16:22:59.853Z,16.10
2023-05-08T16:25:26.640Z,16.10
2023-05-08T16:27:53.545Z,16.20
2023-05-08T16:30:20.531Z,16.30
2023-05-08T16:32:47.507Z,16.30
2023-05-08T16:35:15.092Z,16.40
2023-05-08T16:37:42.669Z,16.60
2023-05-08T16:40:10.806Z,16.70
2023-05-08T16:42:38.171Z,16.70
2023-05-08T16:45:05.920Z,16.80
2023-05-08T16:47:33.878Z,16.80
2023-05-08T16:50:00.771Z,16.80
2023-05-08T16:52:27.734Z,16.80
2023-05-08T16:54:54.534Z,16.80
2023-05-08T16:57:21.418Z,16.80
2023-05-08T16:59:48.301Z,16.80
2023-05-08T17:02:19.038Z,16.90
2023-05-08T17:04:47.470Z,16.80
2023-05-08T17:07:15.558Z,16.80
2023-05-08T17:09:42.413Z,16.80
2023-05-08T17:12:10.259Z,16.80
2023-05-08T17:14:39.365Z,16.70
2023-05-08T17:17:06.971Z,16.70
2023-05-08T17:19:34.079Z,16.70
2023-05-08T17:22:01.109Z,16.60
2023-05-08T17:24:30.274Z,16.60
2023-05-08T17:26:57.112Z,16.50
2023-05-08T17:29:24.102Z,16.60
2023-05-08T17:31:50.973Z,16.60
2023-05-08T17:34:17.915Z,16.70
2023-05-08T17:36:44.749Z,16.70
2023-05-08T17:39:12.060Z,16.30
2023-05-08T17:41:39.482Z,16.20
2023-05-08T17:44:06.983Z,16.00
2023-05-08T17:46:33.857Z,15.90
2023-05-08T17:49:00.754Z,15.80
2023-05-08T17:51:27.555Z,15.70
2023-05-08T17:53:56.028Z,15.70
2023-05-08T17:56:23.538Z,15.60
2023-05-08T17:58:55.425Z,15.60
2023-05-08T18:01:22.490Z,15.50
2023-05-08T18:03:49.304Z,15.50
2023-05-08T18:06:20.855Z,15.40
2023-05-08T18:08:48.162Z,15.30
2023-05-08T18:11:20.242Z,15.30
2023-05-08T18:13:47.286Z,15.30
2023-05-08T18:16:15.639Z,15.20
2023-05-08T18:18:42.518Z,15.20
2023-05-08T18:21:09.689Z,15.10
2023-05-08T18:23:36.735Z,15.10
2023-05-08T18:26:03.992Z,15.10
2023-05-08T18:28:31.129Z,15.10
2023-05-08T18:30:58.120Z,15.10
2023-05-08T18:33:25.312Z,15.00
2023-05-08T18:35:52.207Z,15.00
2023-05-08T18:38:19.036Z,15.00
2023-05-08T18:40:46.800Z,15.00
2023-05-08T18:43:13.646Z,14.90
2023-05-08T18:45:43.455Z,14.90
2023-05-08T18:48:11.317Z,14.90
2023-05-08T18:50:38.320Z,15.00
2023-05-08T18:53:06.324Z,14.80
2023-05-08T18:55:33.150Z,14.80
2023-05-08T18:57:59.911Z,14.70
2023-05-08T19:00:26.915Z,14.70
2023-05-08T19:02:53.849Z,14.70
2023-05-08T19:05:21.006Z,14.70
2023-05-08T19:07:47.784Z,14.60
2023-05-08T19:10:14.926Z,14.70
2023-05-08T19:12:42.259Z,14.60
2023-05-08T19:15:13.370Z,14.60
2023-05-08T19:17:40.783Z,14.50
2023-05-08T19:20:08.537Z,14.50
2023-05-08T19:22:36.116Z,14.50
2023-05-08T19:25:03.562Z,14.40
2023-05-08T19:27:31.999Z,14.40
2023-05-08T19:29:58.974Z,14.40
2023-05-08T19:32:25.907Z,14.30
2023-05-08T19:34:53.550Z,14.30
2023-05-08T19:37:20.386Z,14.30
2023-05-08T19:39:47.275Z,14.20
2023-05-08T19:42:14.135Z,14.20
2023-05-08T19:44:41.394Z,14.20
2023-05-08T19:47:08.421Z,14.20
2023-05-08T19:49:35.193Z,14.20
2023-05-08T19:52:01.990Z,14.20
2023-05-08T19:54:30.304Z,14.20
2023-05-08T19:56:57.580Z,14.20
2023-05-08T19:59:24.520Z,14.20
2023-05-08T20:01:51.506Z,14.20
2023-05-08T20:04:18.313Z,14.20
2023-05-08T20:06:45.173Z,14.10
2023-05-08T20:09:11.967Z,14.10
2023-05-08T20:11:38.758Z,14.10
2023-05-08T20:14:05.653Z,14.10
2023-05-08T20:16:32.473Z,14.10
2023-05-08T20:19:01.469Z,14.00
2023-05-08T20:21:32.358Z,14.00
2023-05-08T20:24:00.459Z,14.00
2023-05-08T20:26:30.470Z,14.00
2023-05-08T20:28:57.815Z,14.00
2023-05-08T20:31:30.522Z,13.90
2023-05-08T20:33:59.466Z,13.90
2023-05-08T20:36:26.742Z,13.90
2023-05-08T20:38:53.641Z,13.90
2023-05-08T20:41:20.512Z,13.90
2023-05-08T20:43:47.328Z,13.90
2023-05-08T20:46:14.141Z,13.90
2023-05-08T20:48:41.013Z,13.80
2023-05-08T20:51:07.847Z,13.80
2023-05-08T20:53:34.646Z,13.80
2023-05-08T20:56:05.834Z,13.80
2023-05-08T20:58:32.627Z,13.70
2023-05-08T21:00:59.466Z,13.70
2023-05-08T21:03:26.372Z,13.70
2023-05-08T21:05:54.954Z,13.70
2023-05-08T21:08:23.613Z,13.70
2023-05-08T21:10:53.506Z,13.70
2023-05-08T21:13:20.379Z,13.70
2023-05-08T21:15:50.582Z,13.70
2023-05-08T21:18:18.291Z,13.70
2023-05-08T21:20:49.711Z,13.70
2023-05-08T21:23:18.222Z,13.70
2023-05-08T21:25:49.464Z,13.70
2023-05-08T21:28:17.299Z,13.70
2023-05-08T21:30:45.318Z,13.70
2023-05-08T21:33:15.894Z,13.70
2023-05-08T21:35:43.693Z,13.70
2023-05-08T21:38:12.102Z,13.70
2023-05-08T21:40:39.464Z,13.70
2023-05-08T21:45:53.873Z,13.70
2023-05-08T21:48:21.521Z,13.70
2023-05-08T21:50:48.808Z,13.70
2023-05-08T21:53:15.684Z,13.70
2023-05-08T21:55:42.481Z,13.70
2023-05-08T21:58:09.268Z,13.70
2023-05-08T22:00:36.346Z,13.70
2023-05-08T22:03:03.313Z,13.70
2023-05-08T22:05:30.222Z,13.70
2023-05-08T22:07:57.003Z,13.70
2023-05-08T22:10:25.469Z,13.70
2023-05-08T22:12:52.357Z,13.70
2023-05-08T22:15:29.670Z,13.70
2023-05-08T22:18:04.428Z,13.70
2023-05-08T22:20:41.311Z,13.70
2023-05-08T22:23:33.104Z,13.70
2023-05-08T22:26:36.502Z,13.70
2023-05-08T22:29:34.402Z,13.80
2023-05-08T22:32:08.687Z,13.70
2023-05-08T22:34:51.778Z,13.70
2023-05-08T22:37:25.444Z,13.70
2023-05-08T22:39:53.679Z,13.70
2023-05-08T22:42:46.430Z,13.70
2023-05-08T22:45:23.197Z,13.70
2023-05-08T22:47:51.373Z,13.70
2023-05-08T22:50:18.963Z,13.70
2023-05-08T22:52:45.901Z,13.70
2023-05-08T22:55:15.501Z,13.70
2023-05-08T22:57:42.582Z,13.60
2023-05-08T23:00:10.380Z,13.60
2023-05-08T23:02:37.362Z,13.60
2023-05-08T23:05:04.737Z,13.60
2023-05-08T23:07:32.002Z,13.60
2023-05-08T23:09:58.768Z,13.50
2023-05-08T23:12:25.553Z,13.50
2023-05-08T23:14:52.960Z,13.50
2023-05-08T23:17:19.733Z,13.50
2023-05-08T23:19:46.570Z,13.50
2023-05-08T23:22:13.568Z,13.60
2023-05-08T23:24:40.388Z,13.50
2023-05-08T23:27:07.168Z,13.50
2023-05-08T23:29:33.999Z,13.60
2023-05-08T23:32:00.748Z,13.60
2023-05-08T23:34:27.542Z,13.60
2023-05-08T23:36:54.321Z,13.60
2023-05-08T23:39:21.227Z,13.60
2023-05-08T23:41:47.968Z,13.60
2023-05-08T23:44:15.660Z,13.60
2023-05-08T23:46:42.720Z,13.60
2023-05-08T23:49:09.871Z,13.60
2023-05-08T23:51:36.722Z,13.60
2023-05-08T23:54:03.836Z,13.60
2023-05-08T23:56:31.047Z,13.60
2023-05-08T23:58:57.798Z,13.50
